Time;durP1;ratioP1;P1;durP2;ratioP2;P2;SDS_P1;SDS_P2;PMS_P1;PMS_P2;Temp;Humidity;BMP_temperature;BMP_pressure;BME280_temperature;BME280_humidity;BME280_pressure;Samples;Min_cycle;Max_cycle;Signal;HPM_P1;HPM_P2
2023/08/28 00:02:06;;;;;;;8.90;5.38;;;;;;;-145.00;88.90;73209.50;5018242;28;20046;-81
2023/08/28 00:04:32;;;;;;;8.20;4.85;;;;;;;-145.00;89.08;73190.78;5019797;28;20056;-80
2023/08/28 00:06:59;;;;;;;7.38;4.40;;;;;;;-145.00;88.28;73163.72;5020173;28;20052;-80
2023/08/28 00:09:25;;;;;;;8.45;5.40;;;;;;;-145.00;87.81;73172.03;5020475;28;20048;-79
2023/08/28 00:11:51;;;;;;;7.75;4.72;;;;;;;-145.00;87.58;73159.53;5019345;28;20056;-81
2023/08/28 00:14:19;;;;;;;8.75;4.70;;;;;;;-145.00;87.18;73144.97;5018948;28;20511;-79
2023/08/28 00:16:46;;;;;;;7.05;4.00;;;;;;;-145.00;87.12;73138.72;5020723;28;20050;-80
2023/08/28 00:19:12;;;;;;;7.18;4.95;;;;;;;-145.00;87.41;73161.63;5021219;28;20113;-80
2023/08/28 00:21:39;;;;;;;8.00;4.22;;;;;;;-145.00;87.43;73142.88;5022017;28;20058;-79
2023/08/28 00:24:06;;;;;;;8.52;4.32;;;;;;;-145.00;87.09;73134.56;5020580;28;20056;-81
2023/08/28 00:26:33;;;;;;;8.88;5.38;;;;;;;-145.00;87.12;73147.06;5021708;28;20056;-79
2023/08/28 00:28:59;;;;;;;8.73;5.45;;;;;;;-145.00;86.94;73134.56;5022215;28;20114;-79
2023/08/28 00:31:27;;;;;;;9.85;5.95;;;;;;;-145.00;86.73;73119.97;5037407;28;20041;-80
2023/08/28 00:33:54;;;;;;;11.73;5.43;;;;;;;-145.00;87.46;73149.13;5040683;28;20077;-80
2023/08/28 00:36:20;;;;;;;10.20;5.55;;;;;;;-145.00;86.96;73119.97;5021588;28;20125;-81
2023/08/28 00:38:47;;;;;;;8.75;5.85;;;;;;;-145.00;86.20;73107.50;5019310;28;20050;-84
2023/08/28 00:41:14;;;;;;;8.25;5.55;;;;;;;-145.00;85.77;73088.75;5018810;28;20042;-82
2023/08/28 00:43:40;;;;;;;9.32;5.95;;;;;;;-145.00;86.49;73109.56;5019948;28;20507;-81
2023/08/28 00:46:07;;;;;;;8.88;5.45;;;;;;;-145.00;86.47;73097.09;5019999;28;20068;-81
2023/08/28 00:48:36;;;;;;;10.75;5.95;;;;;;;-145.00;86.44;73105.41;5020597;28;20046;-79
2023/08/28 00:51:03;;;;;;;9.80;4.95;;;;;;;-145.00;86.33;73097.09;5021119;28;20068;-79
2023/08/28 00:53:30;;;;;;;9.05;5.40;;;;;;;-145.00;86.68;73117.91;5021790;28;20052;-82
2023/08/28 00:55:57;;;;;;;7.85;4.85;;;;;;;-145.00;86.75;73128.31;5020893;28;20048;-81
2023/08/28 00:58:23;;;;;;;10.55;5.60;;;;;;;-145.00;87.69;73167.88;5020576;28;20044;-81
2023/08/28 01:00:50;;;;;;;7.85;5.20;;;;;;;-145.00;87.49;73147.06;5019416;28;20054;-81
2023/08/28 01:03:17;;;;;;;9.88;5.40;;;;;;;-145.00;87.91;73167.88;5019675;28;20414;-79
2023/08/28 01:05:51;;;;;;;10.52;5.45;;;;;;;-145.00;89.25;73176.19;5021354;28;20041;-82
2023/08/28 01:08:28;;;;;;;9.60;4.90;;;;;;;-145.00;88.38;73159.53;5020905;28;20447;-79
2023/08/28 01:10:59;;;;;;;7.47;4.35;;;;;;;-145.00;88.11;73138.72;5019002;28;20423;-81
2023/08/28 01:13:35;;;;;;;9.15;4.75;;;;;;;-145.00;87.45;73126.22;5019607;28;20038;-83
2023/08/28 01:16:01;;;;;;;8.18;4.68;;;;;;;-145.00;86.83;73113.75;5016913;28;20042;-81
2023/08/28 01:18:28;;;;;;;7.05;4.40;;;;;;;-145.00;86.59;73109.56;5017488;28;20044;-81
2023/08/28 01:20:58;;;;;;;7.88;5.18;;;;;;;-145.00;87.15;73130.41;5017159;28;20042;-81
2023/08/28 01:23:28;;;;;;;8.30;4.72;;;;;;;-145.00;87.76;73130.41;5016053;28;20052;-84
2023/08/28 01:25:57;;;;;;;7.32;5.10;;;;;;;-145.00;87.91;73140.81;5016352;28;20101;-83
2023/08/28 01:28:25;;;;;;;8.52;5.30;;;;;;;-145.00;87.92;73140.81;5017087;28;20069;-78
2023/08/28 01:30:53;;;;;;;9.18;5.45;;;;;;;-145.00;87.60;73122.06;5025832;28;20045;-80
2023/08/28 01:33:20;;;;;;;11.50;5.55;;;;;;;-145.00;87.41;73124.16;5017612;28;20100;-80
2023/08/28 01:35:55;;;;;;;8.07;5.40;;;;;;;-145.00;86.84;73109.56;5017034;28;20537;-82
2023/08/28 01:38:30;;;;;;;9.77;5.85;;;;;;;-145.00;86.08;73095.00;5017690;28;20053;-82
2023/08/28 01:40:59;;;;;;;10.05;5.97;;;;;;;-145.00;85.60;73092.91;5017218;28;20522;-80
2023/08/28 01:43:30;;;;;;;9.52;5.50;;;;;;;-145.00;85.55;73088.75;5023159;28;20099;-84
2023/08/28 01:45:56;;;;;;;9.45;5.82;;;;;;;-145.00;85.81;73090.84;5028516;28;20041;-81
2023/08/28 01:48:26;;;;;;;12.65;6.75;;;;;;;-145.00;85.83;73092.91;5036968;28;20050;-81
2023/08/28 01:50:53;;;;;;;9.30;6.28;;;;;;;-145.00;85.85;73086.69;5021370;28;20044;-80
2023/08/28 01:53:19;;;;;;;12.35;5.93;;;;;;;-145.00;85.83;73080.44;5021311;28;20060;-81
2023/08/28 01:56:16;;;;;;;10.40;6.53;;;;;;;-145.00;85.92;73080.44;5020737;28;20046;-80
2023/08/28 01:58:44;;;;;;;9.98;6.03;;;;;;;-145.00;85.72;73080.44;5021394;28;20046;-80
2023/08/28 02:01:10;;;;;;;8.38;5.32;;;;;;;-145.00;85.60;73076.25;5040359;28;20053;-80
2023/08/28 02:03:39;;;;;;;8.93;5.18;;;;;;;-145.00;85.66;73076.25;5041211;28;20133;-79
2023/08/28 02:06:05;;;;;;;8.73;5.72;;;;;;;-145.00;85.52;73080.44;5019550;28;20053;-82
2023/08/28 02:08:32;;;;;;;9.00;5.32;;;;;;;-145.00;85.75;73084.59;5059008;22;20045;-80
2023/08/28 02:10:58;;;;;;;13.00;6.43;;;;;;;-145.00;85.78;73080.44;5062749;28;20056;-80
2023/08/28 02:13:26;;;;;;;10.13;6.53;;;;;;;-145.00;85.77;73080.44;5054467;28;20518;-80
2023/08/28 02:15:53;;;;;;;11.95;7.32;;;;;;;-145.00;85.87;73080.44;5052578;28;20037;-81
2023/08/28 02:18:20;;;;;;;11.73;7.38;;;;;;;-145.00;85.93;73063.78;5060054;28;20047;-80
2023/08/28 02:20:46;;;;;;;14.13;7.93;;;;;;;-145.00;85.89;73049.19;5056946;28;20041;-80
2023/08/28 02:23:13;;;;;;;10.35;6.93;;;;;;;-145.00;85.54;73045.03;5060550;28;20514;-80
2023/08/28 02:25:41;;;;;;;11.48;7.20;;;;;;;-145.00;85.61;73051.28;5054192;28;20045;-80
2023/08/28 02:28:07;;;;;;;9.70;6.68;;;;;;;-145.00;85.45;73042.97;5052903;28;20094;-80
2023/08/28 02:30:35;;;;;;;8.65;5.38;;;;;;;-145.00;84.48;73047.13;5054384;28;20041;-80
2023/08/28 02:33:02;;;;;;;9.88;5.45;;;;;;;-145.00;84.70;73047.13;5064982;28;20049;-80
2023/08/28 02:35:28;;;;;;;8.57;4.90;;;;;;;-145.00;84.55;73059.59;5075433;28;20422;-80
2023/08/28 02:37:55;;;;;;;5.45;4.10;;;;;;;-145.00;85.01;73063.78;5074366;28;20044;-80
2023/08/28 02:40:21;;;;;;;6.13;3.67;;;;;;;-145.00;85.34;73061.69;5060935;28;20049;-80
2023/08/28 02:42:48;;;;;;;5.25;3.45;;;;;;;-145.00;85.32;73067.94;5059598;28;20055;-80
2023/08/28 02:45:14;;;;;;;5.32;3.20;;;;;;;-145.00;85.13;73088.75;5052953;28;20041;-81
2023/08/28 02:47:42;;;;;;;5.53;3.22;;;;;;;-145.00;84.72;73084.59;5070436;28;20040;-81
2023/08/28 02:50:10;;;;;;;7.05;3.72;;;;;;;-145.00;84.48;73090.84;5072358;28;20434;-81
2023/08/28 02:52:36;;;;;;;5.05;3.30;;;;;;;-145.00;84.29;73099.16;5057229;28;20070;-81
2023/08/28 02:55:03;;;;;;;4.38;3.08;;;;;;;-145.00;83.84;73099.16;5066332;28;20060;-80
2023/08/28 02:57:29;;;;;;;5.60;3.10;;;;;;;-145.00;84.07;73103.31;5067226;28;20045;-81
2023/08/28 02:59:56;;;;;;;5.22;3.33;;;;;;;-145.00;84.09;73103.31;5053656;28;20517;-81
2023/08/28 03:02:22;;;;;;;5.65;3.42;;;;;;;-145.00;84.57;73115.81;5053231;28;20052;-80
2023/08/28 03:04:50;;;;;;;3.80;2.85;;;;;;;-145.00;84.79;73128.31;5055636;28;20524;-80
2023/08/28 03:07:16;;;;;;;6.45;2.83;;;;;;;-145.00;85.12;73151.22;5056284;28;20045;-80
2023/08/28 03:09:44;;;;;;;3.78;2.50;;;;;;;-145.00;84.78;73147.06;5055933;28;20047;-80
2023/08/28 03:12:10;;;;;;;4.18;2.92;;;;;;;-145.00;84.99;73147.06;5055702;28;20040;-80
2023/08/28 03:14:37;;;;;;;5.18;3.10;;;;;;;-145.00;84.88;73142.88;5071815;28;20044;-80
2023/08/28 03:17:03;;;;;;;5.72;3.10;;;;;;;-145.00;84.86;73134.56;5058568;28;20053;-80
2023/08/28 03:19:30;;;;;;;4.13;2.85;;;;;;;-145.00;84.52;73140.81;5061320;28;20400;-80
2023/08/28 03:21:58;;;;;;;4.35;2.80;;;;;;;-145.00;84.60;73136.63;5065093;28;20535;-80
2023/08/28 03:24:24;;;;;;;4.03;2.72;;;;;;;-145.00;84.59;73134.56;5075428;28;20036;-80
2023/08/28 03:26:51;;;;;;;3.33;2.60;;;;;;;-145.00;84.62;73134.56;5060133;28;20041;-82
2023/08/28 03:29:17;;;;;;;4.00;2.80;;;;;;;-145.00;84.79;73149.13;5056556;28;20052;-81
2023/08/28 03:31:44;;;;;;;3.67;2.17;;;;;;;-145.00;84.93;73163.72;5049508;28;20041;-80
2023/08/28 03:34:11;;;;;;;3.30;2.45;;;;;;;-145.00;85.46;73180.34;5054559;28;20510;-80
2023/08/28 03:36:37;;;;;;;5.47;2.53;;;;;;;-145.00;85.24;73167.88;5054942;28;20056;-80
2023/08/28 03:39:05;;;;;;;4.22;2.83;;;;;;;-145.00;85.36;73180.34;5062393;28;20048;-80
2023/08/28 03:41:32;;;;;;;3.58;2.53;;;;;;;-145.00;85.58;73184.53;5055476;28;20051;-81
2023/08/28 03:43:58;;;;;;;4.20;2.80;;;;;;;-145.00;85.56;73190.78;5071917;28;20037;-80
2023/08/28 03:46:25;;;;;;;5.38;3.67;;;;;;;-145.00;85.35;73182.44;5067912;28;20044;-80
2023/08/28 03:48:51;;;;;;;3.72;2.63;;;;;;;-145.00;85.28;73180.34;5058583;28;20045;-80
2023/08/28 03:51:18;;;;;;;3.72;2.88;;;;;;;-145.00;85.43;73180.34;5042509;28;20053;-81
2023/08/28 03:53:44;;;;;;;5.57;3.67;;;;;;;-145.00;85.27;73180.34;5054789;28;20061;-80
2023/08/28 03:56:12;;;;;;;6.30;3.85;;;;;;;-145.00;85.41;73180.34;5051490;28;20053;-80
2023/08/28 03:58:39;;;;;;;11.25;4.75;;;;;;;-145.00;85.15;73176.19;5054964;28;20070;-81
2023/08/28 04:01:05;;;;;;;7.57;5.03;;;;;;;-145.00;84.39;73172.03;5055953;28;20060;-81
2023/08/28 04:03:33;;;;;;;7.88;5.18;;;;;;;-145.00;84.23;73167.88;5055222;28;20072;-81
2023/08/28 04:05:59;;;;;;;7.55;4.82;;;;;;;-145.00;84.57;73155.38;5054169;28;20059;-80
2023/08/28 04:08:26;;;;;;;7.13;4.47;;;;;;;-145.00;84.73;73149.13;5058651;28;20037;-80
2023/08/28 04:10:53;;;;;;;6.20;4.15;;;;;;;-145.00;85.21;73140.81;5054559;28;20044;-80
2023/08/28 04:13:21;;;;;;;5.88;4.50;;;;;;;-145.00;85.23;73130.41;5054248;28;20063;-81
2023/08/28 04:15:47;;;;;;;8.20;5.40;;;;;;;-145.00;85.35;73134.56;5055138;28;20041;-81
2023/08/28 04:18:14;;;;;;;8.35;4.63;;;;;;;-145.00;85.24;73128.31;5047880;28;20099;-80
2023/08/28 04:20:40;;;;;;;6.40;4.32;;;;;;;-145.00;85.01;73130.41;5055029;28;20056;-80
2023/08/28 04:23:07;;;;;;;6.97;3.88;;;;;;;-145.00;84.82;73126.22;5056780;28;20056;-80
2023/08/28 04:25:34;;;;;;;6.95;4.00;;;;;;;-145.00;84.82;73126.22;5075842;28;20075;-81
2023/08/28 04:28:00;;;;;;;5.32;3.65;;;;;;;-145.00;84.99;73126.22;5068129;28;20033;-81
2023/08/28 04:30:28;;;;;;;6.82;3.75;;;;;;;-145.00;85.08;73122.06;5063692;28;20041;-83
2023/08/28 04:32:54;;;;;;;5.40;3.63;;;;;;;-145.00;85.21;73109.56;5068274;28;20040;-81
2023/08/28 04:35:21;;;;;;;5.47;3.30;;;;;;;-145.00;85.29;73111.66;5057159;28;20051;-81
2023/08/28 04:37:48;;;;;;;8.52;4.10;;;;;;;-145.00;84.97;73107.50;5056745;28;20461;-81
2023/08/28 04:40:15;;;;;;;4.63;3.00;;;;;;;-145.00;84.46;73109.56;5054286;28;20049;-81
2023/08/28 04:42:42;;;;;;;7.00;3.13;;;;;;;-145.00;84.31;73115.81;5055014;28;20047;-81
2023/08/28 04:45:09;;;;;;;5.60;3.17;;;;;;;-145.00;84.36;73117.91;5055038;28;20052;-82
2023/08/28 04:47:37;;;;;;;4.50;3.00;;;;;;;-145.00;84.97;73124.16;5055673;28;20055;-81
2023/08/28 04:50:04;;;;;;;6.03;3.28;;;;;;;-145.00;85.30;73126.22;5070124;28;20056;-81
2023/08/28 04:52:31;;;;;;;3.85;2.78;;;;;;;-145.00;85.29;73134.56;5064409;28;20052;-81
2023/08/28 04:55:00;;;;;;;6.25;4.38;;;;;;;-145.00;85.18;73130.41;5072755;28;20041;-81
2023/08/28 04:57:27;;;;;;;5.32;3.67;;;;;;;-145.00;84.88;73132.47;5060419;28;20138;-81
2023/08/28 04:59:54;;;;;;;4.72;3.45;;;;;;;-145.00;84.78;73130.41;5065053;28;20056;-81
2023/08/28 05:02:22;;;;;;;5.20;3.38;;;;;;;-145.00;85.16;73126.22;5055464;28;20109;-81
2023/08/28 05:04:50;;;;;;;4.53;3.10;;;;;;;-145.00;85.38;73113.75;5056418;28;20045;-81
2023/08/28 05:07:17;;;;;;;5.20;3.30;;;;;;;-145.00;85.17;73113.75;5059609;28;20047;-81
2023/08/28 05:09:45;;;;;;;5.00;3.40;;;;;;;-145.00;84.99;73117.91;5059854;28;20059;-81
2023/08/28 05:12:14;;;;;;;6.35;4.20;;;;;;;-145.00;85.32;73136.63;5058757;28;20052;-81
2023/08/28 05:14:41;;;;;;;6.53;3.55;;;;;;;-145.00;85.16;73130.41;5064081;28;20055;-81
2023/08/28 05:17:07;;;;;;;5.80;3.60;;;;;;;-145.00;84.97;73134.56;5076982;28;20045;-81
2023/08/28 05:19:35;;;;;;;5.28;3.67;;;;;;;-145.00;84.96;73130.41;5077483;28;20045;-81
2023/08/28 05:22:03;;;;;;;4.35;2.92;;;;;;;-145.00;85.19;73126.22;5067734;28;20049;-82
2023/08/28 05:24:30;;;;;;;4.72;3.55;;;;;;;-145.00;85.20;73113.75;5055636;28;20068;-81
2023/08/28 05:26:56;;;;;;;6.50;3.72;;;;;;;-145.00;85.35;73109.56;5055515;28;20507;-82
2023/08/28 05:29:24;;;;;;;6.28;3.80;;;;;;;-145.00;85.56;73111.66;5054611;28;20051;-81
2023/08/28 05:31:51;;;;;;;4.63;3.67;;;;;;;-145.00;85.55;73097.09;5056356;28;20053;-81
2023/08/28 05:34:18;;;;;;;4.80;3.80;;;;;;;-145.00;85.44;73084.59;5054466;28;20104;-81
2023/08/28 05:36:45;;;;;;;5.72;3.80;;;;;;;-145.00;85.47;73076.25;5069518;28;20041;-81
2023/08/28 05:39:13;;;;;;;5.68;4.13;;;;;;;-145.00;85.60;73080.44;5055637;28;20573;-81
2023/08/28 05:41:40;;;;;;;7.82;4.30;;;;;;;-145.00;85.67;73080.44;5055092;28;20045;-81
2023/08/28 05:44:09;;;;;;;8.48;4.47;;;;;;;-145.00;85.77;73084.59;5054946;28;20075;-81
2023/08/28 05:46:37;;;;;;;6.95;4.60;;;;;;;-145.00;85.76;73070.03;5054969;28;20075;-81
2023/08/28 05:49:05;;;;;;;6.65;4.50;;;;;;;-145.00;85.78;73055.44;5063232;28;20481;-82
2023/08/28 05:51:37;;;;;;;6.97;4.60;;;;;;;-145.00;86.22;73042.97;5075130;28;20502;-82
2023/08/28 05:54:04;;;;;;;6.35;4.93;;;;;;;-145.00;86.33;73045.03;5058373;28;20079;-82
2023/08/28 05:56:33;;;;;;;6.90;4.72;;;;;;;-145.00;86.60;73026.31;5055482;28;20041;-81
2023/08/28 05:59:00;;;;;;;5.80;4.43;;;;;;;-145.00;86.33;72999.22;5045412;28;20477;-81
2023/08/28 06:01:28;;;;;;;8.52;5.28;;;;;;;-145.00;86.34;72993.00;5053817;28;20094;-81
2023/08/28 06:03:56;;;;;;;9.40;5.97;;;;;;;-145.00;86.76;73005.47;5062925;28;20486;-82
2023/08/28 06:06:24;;;;;;;8.73;5.82;;;;;;;-145.00;86.95;72990.91;5066916;28;20151;-81
2023/08/28 06:08:52;;;;;;;9.05;5.90;;;;;;;-145.00;87.12;73015.88;5074921;28;20138;-82
2023/08/28 06:11:20;;;;;;;10.30;6.90;;;;;;;-145.00;87.40;73017.97;5073259;28;20498;-81
2023/08/28 06:13:48;;;;;;;10.73;6.80;;;;;;;-145.00;88.01;73026.31;5055623;28;20037;-81
2023/08/28 06:16:17;;;;;;;9.77;6.13;;;;;;;-145.00;88.05;72993.00;5055219;28;20140;-82
2023/08/28 06:18:45;;;;;;;10.18;7.20;;;;;;;-145.00;87.63;72984.66;5070453;28;20040;-81
2023/08/28 06:21:12;;;;;;;14.02;6.70;;;;;;;-145.00;87.59;72995.06;5081253;28;20052;-81
2023/08/28 06:23:39;;;;;;;11.20;7.22;;;;;;;-145.00;87.24;73003.41;5071852;28;20049;-82
2023/08/28 06:26:05;;;;;;;11.45;5.90;;;;;;;-145.00;86.98;72997.16;5054764;28;20059;-81
2023/08/28 06:28:32;;;;;;;8.98;6.45;;;;;;;-145.00;86.58;73007.56;5056234;28;20053;-81
2023/08/28 06:31:00;;;;;;;7.85;5.80;;;;;;;-145.00;85.93;73022.13;5057318;28;20072;-81
2023/08/28 06:33:26;;;;;;;10.15;6.18;;;;;;;-145.00;86.03;73022.13;5055357;28;20615;-81
2023/08/28 06:35:53;;;;;;;9.50;5.72;;;;;;;-145.00;86.19;73042.97;5071163;28;20045;-81
2023/08/28 06:38:20;;;;;;;7.43;5.22;;;;;;;-145.00;86.22;73042.97;5062492;28;20045;-81
2023/08/28 06:40:50;;;;;;;8.15;4.85;;;;;;;-145.00;86.26;73042.97;5061895;28;20048;-82
2023/08/28 06:43:17;;;;;;;6.60;4.82;;;;;;;-145.00;86.21;73040.88;5081283;28;20041;-81
2023/08/28 06:45:44;;;;;;;10.32;5.55;;;;;;;-145.00;86.14;73055.44;5099868;28;20036;-82
2023/08/28 06:48:12;;;;;;;7.60;5.50;;;;;;;-145.00;86.08;73038.78;5099060;28;20039;-81
2023/08/28 06:50:39;;;;;;;6.68;4.68;;;;;;;-145.00;86.21;73030.47;5085644;28;20131;-81
2023/08/28 06:53:06;;;;;;;9.10;4.90;;;;;;;-145.00;86.31;73034.63;5064457;28;20052;-82
2023/08/28 06:55:33;;;;;;;6.57;4.50;;;;;;;-145.00;86.15;73022.13;5062856;28;20509;-82
2023/08/28 06:57:59;;;;;;;6.65;4.25;;;;;;;-145.00;85.98;73017.97;5061865;28;20033;-82
2023/08/28 07:00:26;;;;;;;5.28;4.15;;;;;;;-145.00;86.11;73022.13;5064485;28;20040;-81
2023/08/28 07:02:53;;;;;;;8.65;4.75;;;;;;;-145.00;86.09;73020.06;5068727;28;20040;-81
2023/08/28 07:05:21;;;;;;;8.05;4.45;;;;;;;-145.00;86.27;73017.97;5061397;28;20107;-81
2023/08/28 07:07:48;;;;;;;6.70;4.32;;;;;;;-145.00;85.98;73017.97;5063866;28;20597;-81
2023/08/28 07:10:14;;;;;;;6.60;3.90;;;;;;;-145.00;86.19;73005.47;5062387;28;20053;-81
2023/08/28 07:12:41;;;;;;;8.90;4.40;;;;;;;-145.00;86.36;72997.16;5063276;28;20041;-81
2023/08/28 07:15:49;;;;;;;6.18;4.03;;;;;;;-145.00;86.67;73005.47;5062565;28;20049;-81
2023/08/28 07:18:16;;;;;;;6.85;4.40;;;;;;;-145.00;86.63;73003.41;5058260;28;20076;-81
2023/08/28 07:20:45;;;;;;;7.85;5.25;;;;;;;-145.00;87.02;73013.81;5070058;28;20507;-81
2023/08/28 07:23:11;;;;;;;5.53;3.97;;;;;;;-145.00;87.34;72993.00;5063269;28;20107;-81
2023/08/28 07:25:38;;;;;;;6.45;4.55;;;;;;;-145.00;87.09;72993.00;5083347;28;20041;-81
2023/08/28 07:28:07;;;;;;;6.22;4.40;;;;;;;-145.00;86.68;72984.66;5083886;28;20123;-81
2023/08/28 07:30:33;;;;;;;9.27;5.43;;;;;;;-145.00;87.01;72984.66;5068467;28;20102;-81
2023/08/28 07:33:00;;;;;;;7.00;5.22;;;;;;;-145.00;87.26;72993.00;5063425;28;20061;-81
2023/08/28 07:35:29;;;;;;;5.85;4.90;;;;;;;-145.00;87.27;72984.66;5062490;28;20688;-81
2023/08/28 07:37:57;;;;;;;7.25;5.00;;;;;;;-145.00;86.93;72972.16;5063039;28;20041;-82
2023/08/28 07:40:24;;;;;;;6.60;4.72;;;;;;;-145.00;86.59;72974.25;5062652;28;20099;-81
2023/08/28 07:42:50;;;;;;;7.95;5.25;;;;;;;-145.00;86.75;72972.16;5062256;28;20049;-81
2023/08/28 07:45:17;;;;;;;6.85;5.03;;;;;;;-145.00;86.05;72963.84;5076377;28;20048;-81
2023/08/28 07:47:44;;;;;;;5.72;4.88;;;;;;;-145.00;85.76;72947.19;5065417;28;20045;-81
2023/08/28 07:50:11;;;;;;;6.30;4.88;;;;;;;-145.00;86.39;72930.53;5082007;28;20100;-81
2023/08/28 07:52:37;;;;;;;8.23;5.13;;;;;;;-145.00;86.22;72920.13;5084011;28;20061;-81
2023/08/28 07:55:06;;;;;;;6.93;4.63;;;;;;;-145.00;86.35;72922.22;5065979;28;20049;-81
2023/08/28 07:57:34;;;;;;;8.60;5.03;;;;;;;-145.00;86.42;72920.13;5061597;28;20517;-81
2023/08/28 08:00:01;;;;;;;6.85;5.05;;;;;;;-145.00;86.62;72930.53;5060755;28;20072;-81
2023/08/28 08:02:27;;;;;;;6.25;4.72;;;;;;;-145.00;86.65;72915.97;5060650;28;20041;-81
2023/08/28 08:04:54;;;;;;;6.40;4.90;;;;;;;-145.00;86.95;72926.38;5062862;28;20056;-80
2023/08/28 08:07:20;;;;;;;6.75;5.10;;;;;;;-145.00;86.71;72938.88;5067196;28;20071;-81
2023/08/28 08:09:47;;;;;;;7.32;5.20;;;;;;;-145.00;86.64;72947.19;5068714;28;20053;-83
2023/08/28 08:12:16;;;;;;;6.93;5.10;;;;;;;-145.00;86.90;72963.84;5067959;28;20123;-82
2023/08/28 08:14:42;;;;;;;7.47;5.68;;;;;;;-145.00;87.19;72993.00;5085194;28;20051;-80
2023/08/28 08:17:09;;;;;;;6.22;5.03;;;;;;;-145.00;87.80;73011.72;5066122;28;20049;-81
2023/08/28 08:19:36;;;;;;;7.97;4.40;;;;;;;-145.00;87.49;73005.47;5069733;28;20040;-81
2023/08/28 08:22:04;;;;;;;6.85;4.80;;;;;;;-145.00;86.93;72986.75;5061205;28;20049;-81
2023/08/28 08:24:31;;;;;;;8.05;5.25;;;;;;;-145.00;86.73;73005.47;5062991;28;20044;-82
2023/08/28 08:26:58;;;;;;;7.05;5.40;;;;;;;-145.00;86.54;73011.72;5063788;28;20073;-81
2023/08/28 08:29:26;;;;;;;9.80;5.30;;;;;;;-145.00;86.62;73026.31;5053272;28;20038;-82
2023/08/28 08:31:53;;;;;;;8.88;5.53;;;;;;;-145.00;86.20;73038.78;5059696;28;20098;-81
2023/08/28 08:34:19;;;;;;;8.30;6.07;;;;;;;-145.00;86.09;73047.13;5068271;28;20053;-81
2023/08/28 08:36:46;;;;;;;9.15;6.25;;;;;;;-145.00;86.08;73053.38;5075539;28;20045;-81
2023/08/28 08:39:13;;;;;;;7.78;5.97;;;;;;;-145.00;85.96;73057.53;5061109;28;20139;-81
2023/08/28 08:41:40;;;;;;;10.40;6.13;;;;;;;-145.00;86.45;73055.44;5062258;28;20056;-81
2023/08/28 08:44:07;;;;;;;8.75;5.82;;;;;;;-145.00;86.62;73063.78;5063139;28;20064;-81
2023/08/28 08:46:35;;;;;;;7.00;4.90;;;;;;;-145.00;86.69;73067.94;5065642;28;20045;-82
2023/08/28 08:49:06;;;;;;;8.50;5.07;;;;;;;-145.00;86.94;73076.25;5064542;28;20053;-80
2023/08/28 08:51:35;;;;;;;6.32;4.10;;;;;;;-145.00;86.46;73076.25;5065827;28;20104;-82
2023/08/28 08:54:07;;;;;;;6.25;3.80;;;;;;;-145.00;86.03;73076.25;5066135;28;20466;-80
2023/08/28 08:56:34;;;;;;;7.72;4.40;;;;;;;-145.00;85.90;73076.25;5065480;28;20136;-82
2023/08/28 08:59:08;;;;;;;5.35;3.92;;;;;;;-145.00;85.88;73080.44;5065907;28;20047;-82
2023/08/28 09:01:37;;;;;;;8.10;4.40;;;;;;;-145.00;85.89;73084.59;5066066;28;20071;-82
2023/08/28 09:04:05;;;;;;;6.47;4.20;;;;;;;-145.00;86.28;73072.09;5065616;28;20053;-81
2023/08/28 09:06:35;;;;;;;6.80;4.00;;;;;;;-145.00;86.78;73097.09;5066009;28;20045;-83
2023/08/28 09:09:05;;;;;;;8.77;4.57;;;;;;;-145.00;87.03;73084.59;5067147;28;20427;-82
2023/08/28 09:11:32;;;;;;;5.80;4.20;;;;;;;-145.00;86.99;73074.19;5067469;28;20044;-83
2023/08/28 09:13:58;;;;;;;6.65;4.05;;;;;;;-145.00;87.04;73047.13;5068792;28;20052;-82
2023/08/28 09:16:25;;;;;;;6.53;4.25;;;;;;;-145.00;87.01;73038.78;5066598;28;20051;-82
2023/08/28 09:18:53;;;;;;;7.20;5.03;;;;;;;-145.00;87.12;73028.38;5066430;28;20045;-82
2023/08/28 09:21:20;;;;;;;7.15;4.47;;;;;;;-145.00;87.55;73017.97;5068532;28;20049;-83
2023/08/28 09:23:48;;;;;;;7.38;4.72;;;;;;;-145.00;87.58;73005.47;5071159;28;20044;-83
2023/08/28 09:26:16;;;;;;;9.23;5.38;;;;;;;-145.00;87.74;72993.00;5070021;28;20076;-82
2023/08/28 09:28:57;;;;;;;6.03;4.25;;;;;;;-145.00;88.24;72997.16;5074492;28;20108;-82
2023/08/28 09:31:28;;;;;;;5.82;4.25;;;;;;;-145.00;88.80;72988.81;5066484;28;20051;-81
2023/08/28 09:33:56;;;;;;;6.15;4.35;;;;;;;-145.00;89.23;72963.84;5070183;28;20052;-82
2023/08/28 09:36:24;;;;;;;9.18;5.20;;;;;;;-145.00;89.16;72949.28;5068455;28;20123;-82
2023/08/28 09:38:51;;;;;;;6.35;4.50;;;;;;;-145.00;89.84;72943.03;5063149;28;20049;-82
2023/08/28 09:41:18;;;;;;;9.70;5.35;;;;;;;-145.00;89.71;72947.19;5062246;28;20066;-82
2023/08/28 09:43:44;;;;;;;6.32;4.20;;;;;;;-145.00;88.90;72915.97;5062977;28;20041;-83
2023/08/28 09:46:11;;;;;;;6.65;4.30;;;;;;;-145.00;88.08;72890.97;5057952;28;20049;-81
2023/08/28 09:48:39;;;;;;;6.25;4.32;;;;;;;-145.00;88.11;72863.91;5060484;28;20123;-82
2023/08/28 09:51:08;;;;;;;7.07;4.97;;;;;;;-145.00;88.18;72847.25;5062309;28;20462;-82
2023/08/28 09:53:35;;;;;;;6.97;5.18;;;;;;;-145.00;88.64;72813.94;5061702;28;20053;-82
2023/08/28 09:56:02;;;;;;;8.15;5.80;;;;;;;-145.00;89.13;72793.13;5061526;28;20055;-82
2023/08/28 09:58:29;;;;;;;5.88;4.45;;;;;;;-145.00;89.58;72803.53;5062027;28;20064;-82
2023/08/28 10:00:57;;;;;;;5.20;3.72;;;;;;;-145.00;89.23;72782.72;5062079;28;20053;-82
2023/08/28 10:03:25;;;;;;;5.50;4.07;;;;;;;-145.00;88.62;72768.16;5058784;28;20529;-82
2023/08/28 10:05:52;;;;;;;6.03;4.55;;;;;;;-145.00;89.02;72730.69;5062067;28;20047;-83
2023/08/28 10:08:38;;;;;;;6.07;4.00;;;;;;;-145.00;88.59;72714.03;5062281;28;20044;-83
2023/08/28 10:11:06;;;;;;;5.85;3.90;;;;;;;-145.00;89.03;72695.28;5067628;28;20051;-81
2023/08/28 10:13:42;;;;;;;6.45;3.70;;;;;;;-145.00;87.29;72701.53;5053455;28;20589;-83
2023/08/28 10:16:12;;;;;;;4.57;2.80;;;;;;;-145.00;86.35;72716.13;5068632;28;20049;-82
2023/08/28 10:18:40;;;;;;;3.05;2.22;;;;;;;-145.00;85.48;72709.88;5065448;28;20055;-82
2023/08/28 10:21:08;;;;;;;3.72;2.35;;;;;;;-145.00;84.60;72699.47;5064735;28;20053;-82
2023/08/28 10:23:36;;;;;;;3.90;2.08;;;;;;;-145.00;85.37;72736.94;5074075;28;20108;-81
2023/08/28 10:26:04;;;;;;;2.65;1.90;;;;;;;-145.00;83.54;72751.50;5076668;28;20056;-81
2023/08/28 10:28:32;;;;;;;2.53;1.75;;;;;;;-145.00;84.38;72757.75;5077004;28;20045;-82
2023/08/28 10:30:59;;;;;;;2.45;1.50;;;;;;;-145.00;84.95;72753.59;5081143;28;20041;-82
2023/08/28 10:33:26;;;;;;;1.98;1.63;;;;;;;-145.00;84.54;72739.00;5078276;28;20045;-83
2023/08/28 10:35:55;;;;;;;3.03;1.77;;;;;;;-145.00;83.84;72747.34;5075313;28;20044;-83
2023/08/28 10:38:24;;;;;;;2.47;1.80;;;;;;;-145.00;83.44;72749.41;5070732;28;20088;-82
2023/08/28 10:40:58;;;;;;;3.05;1.70;;;;;;;-145.00;83.19;72726.53;5063551;28;20049;-82
2023/08/28 10:43:27;;;;;;;3.80;1.90;;;;;;;-145.00;82.46;72711.94;5047236;28;20072;-82
2023/08/28 10:45:56;;;;;;;2.00;1.55;;;;;;;-145.00;82.31;72709.88;5050806;28;20048;-82
2023/08/28 10:48:23;;;;;;;2.53;1.70;;;;;;;-145.00;82.29;72714.03;5062070;28;20457;-82
2023/08/28 10:50:56;;;;;;;2.03;1.50;;;;;;;-145.00;81.08;72705.69;5062777;28;20099;-82
2023/08/28 10:53:22;;;;;;;2.05;1.33;;;;;;;-145.00;80.65;72680.72;5076690;28;20068;-82
2023/08/28 10:55:53;;;;;;;2.90;1.45;;;;;;;-145.00;81.41;72647.41;5067299;28;20045;-82
2023/08/28 10:58:21;;;;;;;1.63;1.35;;;;;;;-145.00;79.91;72647.41;5059761;28;20041;-83
2023/08/28 11:01:11;;;;;;;1.40;1.27;;;;;;;-145.00;80.55;72645.34;5065938;28;20508;-82
2023/08/28 11:03:53;;;;;;;1.67;1.35;;;;;;;-145.00;81.67;72647.41;5060290;28;20041;-82
2023/08/28 11:06:39;;;;;;;1.75;1.30;;;;;;;-145.00;80.75;72626.59;5057901;28;20466;-82
2023/08/28 11:09:33;;;;;;;2.38;1.45;;;;;;;-145.00;80.46;72643.25;5049577;28;20541;-81
2023/08/28 11:12:28;;;;;;;1.77;0.93;;;;;;;-145.00;79.49;72630.75;5052461;28;20045;-82
2023/08/28 11:15:03;;;;;;;2.47;1.10;;;;;;;-145.00;79.59;72643.25;5064103;28;20460;-82
2023/08/28 11:17:34;;;;;;;1.83;1.23;;;;;;;-145.00;79.11;72618.28;5071737;28;20521;-82
2023/08/28 11:20:05;;;;;;;2.05;1.35;;;;;;;-145.00;76.51;72620.34;5079982;28;20044;-82
2023/08/28 11:22:33;;;;;;;1.45;1.05;;;;;;;-145.00;75.12;72618.28;5063342;28;20152;-83